sensor_id;sensor_type;location;lat;lon;timestamp;temperature;humidity
55785;DHT22;41709;52.536;5.688;2022-09-12T00:01:19;17.00;75.60
55785;DHT22;41709;52.536;5.688;2022-09-12T00:03:45;17.00;75.40
55785;DHT22;41709;52.536;5.688;2022-09-12T00:06:18;17.00;75.30
55785;DHT22;41709;52.536;5.688;2022-09-12T00:08:44;17.00;75.40
55785;DHT22;41709;52.536;5.688;2022-09-12T00:11:11;17.00;75.70
55785;DHT22;41709;52.536;5.688;2022-09-12T00:13:38;17.00;75.90
55785;DHT22;41709;52.536;5.688;2022-09-12T00:16:04;16.90;75.70
55785;DHT22;41709;52.536;5.688;2022-09-12T00:18:31;16.90;75.60
55785;DHT22;41709;52.536;5.688;2022-09-12T00:21:01;16.90;75.80
55785;DHT22;41709;52.536;5.688;2022-09-12T00:23:28;16.90;75.80
55785;DHT22;41709;52.536;5.688;2022-09-12T00:25:53;16.90;75.70
55785;DHT22;41709;52.536;5.688;2022-09-12T00:28:19;17.00;75.70
55785;DHT22;41709;52.536;5.688;2022-09-12T00:30:46;16.90;75.80
55785;DHT22;41709;52.536;5.688;2022-09-12T00:33:13;16.90;75.60
55785;DHT22;41709;52.536;5.688;2022-09-12T00:35:46;16.80;75.50
55785;DHT22;41709;52.536;5.688;2022-09-12T00:38:13;16.80;75.50
55785;DHT22;41709;52.536;5.688;2022-09-12T00:40:39;16.80;75.60
55785;DHT22;41709;52.536;5.688;2022-09-12T00:45:53;16.80;75.80
55785;DHT22;41709;52.536;5.688;2022-09-12T00:48:27;16.80;76.10
55785;DHT22;41709;52.536;5.688;2022-09-12T00:50:55;16.90;75.90
55785;DHT22;41709;52.536;5.688;2022-09-12T00:53:21;16.80;76.00
55785;DHT22;41709;52.536;5.688;2022-09-12T00:55:49;16.80;76.10
55785;DHT22;41709;52.536;5.688;2022-09-12T00:58:22;16.80;75.80
55785;DHT22;41709;52.536;5.688;2022-09-12T01:00:49;16.80;75.90
55785;DHT22;41709;52.536;5.688;2022-09-12T01:03:17;16.80;75.90
55785;DHT22;41709;52.536;5.688;2022-09-12T01:05:51;16.80;75.80
55785;DHT22;41709;52.536;5.688;2022-09-12T01:08:18;16.80;75.80
55785;DHT22;41709;52.536;5.688;2022-09-12T01:10:45;16.80;75.90
55785;DHT22;41709;52.536;5.688;2022-09-12T01:13:10;16.80;75.90
55785;DHT22;41709;52.536;5.688;2022-09-12T01:15:37;16.90;75.70
55785;DHT22;41709;52.536;5.688;2022-09-12T01:18:28;16.80;75.70
55785;DHT22;41709;52.536;5.688;2022-09-12T01:21:13;16.80;75.80
55785;DHT22;41709;52.536;5.688;2022-09-12T01:38:18;16.80;75.40
55785;DHT22;41709;52.536;5.688;2022-09-12T01:46:19;16.70;75.30
55785;DHT22;41709;52.536;5.688;2022-09-12T01:49:00;16.70;75.40
55785;DHT22;41709;52.536;5.688;2022-09-12T01:51:33;16.70;75.70
55785;DHT22;41709;52.536;5.688;2022-09-12T01:54:12;16.70;75.40
55785;DHT22;41709;52.536;5.688;2022-09-12T01:56:40;16.60;75.50
55785;DHT22;41709;52.536;5.688;2022-09-12T01:59:22;16.60;75.50
55785;DHT22;41709;52.536;5.688;2022-09-12T02:02:06;16.60;75.30
55785;DHT22;41709;52.536;5.688;2022-09-12T02:12:06;16.50;75.10
55785;DHT22;41709;52.536;5.688;2022-09-12T02:14:37;16.50;75.10
55785;DHT22;41709;52.536;5.688;2022-09-12T02:17:14;16.50;75.00
55785;DHT22;41709;52.536;5.688;2022-09-12T02:20:05;16.40;75.10
55785;DHT22;41709;52.536;5.688;2022-09-12T02:22:34;16.40;75.20
55785;DHT22;41709;52.536;5.688;2022-09-12T02:25:02;16.40;75.60
55785;DHT22;41709;52.536;5.688;2022-09-12T02:27:35;16.40;76.10
55785;DHT22;41709;52.536;5.688;2022-09-12T02:30:03;16.40;76.30
55785;DHT22;41709;52.536;5.688;2022-09-12T02:32:59;16.30;76.40
55785;DHT22;41709;52.536;5.688;2022-09-12T02:36:05;16.30;76.60
55785;DHT22;41709;52.536;5.688;2022-09-12T02:38:40;16.30;76.50
55785;DHT22;41709;52.536;5.688;2022-09-12T02:41:08;16.30;76.50
55785;DHT22;41709;52.536;5.688;2022-09-12T02:43:34;16.30;76.30
55785;DHT22;41709;52.536;5.688;2022-09-12T02:46:03;16.30;76.50
55785;DHT22;41709;52.536;5.688;2022-09-12T02:48:33;16.30;76.50
55785;DHT22;41709;52.536;5.688;2022-09-12T02:51:00;16.30;76.80
55785;DHT22;41709;52.536;5.688;2022-09-12T02:53:27;16.30;76.80
55785;DHT22;41709;52.536;5.688;2022-09-12T02:55:53;16.20;76.70
55785;DHT22;41709;52.536;5.688;2022-09-12T02:58:21;16.20;76.70
55785;DHT22;41709;52.536;5.688;2022-09-12T03:00:57;16.20;76.80
55785;DHT22;41709;52.536;5.688;2022-09-12T03:05:58;16.20;76.80
55785;DHT22;41709;52.536;5.688;2022-09-12T03:13:59;16.20;76.60
55785;DHT22;41709;52.536;5.688;2022-09-12T03:19:12;16.20;76.60
55785;DHT22;41709;52.536;5.688;2022-09-12T03:21:56;16.10;76.60
55785;DHT22;41709;52.536;5.688;2022-09-12T03:29:36;16.10;76.70
55785;DHT22;41709;52.536;5.688;2022-09-12T03:32:03;16.10;76.70
55785;DHT22;41709;52.536;5.688;2022-09-12T03:34:28;16.00;76.70
55785;DHT22;41709;52.536;5.688;2022-09-12T03:36:54;16.00;76.90
55785;DHT22;41709;52.536;5.688;2022-09-12T03:39:21;16.00;77.10
55785;DHT22;41709;52.536;5.688;2022-09-12T03:41:49;16.00;77.30
55785;DHT22;41709;52.536;5.688;2022-09-12T03:44:16;16.00;77.40
55785;DHT22;41709;52.536;5.688;2022-09-12T03:46:41;16.00;77.20
55785;DHT22;41709;52.536;5.688;2022-09-12T03:49:07;15.90;77.70
55785;DHT22;41709;52.536;5.688;2022-09-12T03:51:32;15.90;77.20
55785;DHT22;41709;52.536;5.688;2022-09-12T03:53:58;15.90;77.20
55785;DHT22;41709;52.536;5.688;2022-09-12T03:56:23;15.90;77.10
55785;DHT22;41709;52.536;5.688;2022-09-12T03:58:49;15.90;77.20
55785;DHT22;41709;52.536;5.688;2022-09-12T04:01:17;15.90;76.90
55785;DHT22;41709;52.536;5.688;2022-09-12T04:03:45;15.90;76.90
55785;DHT22;41709;52.536;5.688;2022-09-12T04:06:12;15.80;77.00
55785;DHT22;41709;52.536;5.688;2022-09-12T04:08:39;15.80;76.90
55785;DHT22;41709;52.536;5.688;2022-09-12T04:11:09;15.80;77.10
55785;DHT22;41709;52.536;5.688;2022-09-12T04:13:35;15.80;77.30
55785;DHT22;41709;52.536;5.688;2022-09-12T04:16:01;15.80;77.40
55785;DHT22;41709;52.536;5.688;2022-09-12T04:18:27;15.80;78.10
55785;DHT22;41709;52.536;5.688;2022-09-12T04:20:52;15.80;77.40
55785;DHT22;41709;52.536;5.688;2022-09-12T04:23:18;15.90;77.60
55785;DHT22;41709;52.536;5.688;2022-09-12T04:25:55;15.70;77.40
55785;DHT22;41709;52.536;5.688;2022-09-12T04:28:22;15.70;77.40
55785;DHT22;41709;52.536;5.688;2022-09-12T04:30:48;15.70;77.20
55785;DHT22;41709;52.536;5.688;2022-09-12T04:33:14;15.70;77.50
55785;DHT22;41709;52.536;5.688;2022-09-12T04:35:40;15.70;77.40
55785;DHT22;41709;52.536;5.688;2022-09-12T04:38:06;15.70;77.30
55785;DHT22;41709;52.536;5.688;2022-09-12T04:40:32;15.70;77.30
55785;DHT22;41709;52.536;5.688;2022-09-12T04:42:58;15.60;77.10
55785;DHT22;41709;52.536;5.688;2022-09-12T04:45:23;15.60;77.00
55785;DHT22;41709;52.536;5.688;2022-09-12T04:47:49;15.60;76.90
55785;DHT22;41709;52.536;5.688;2022-09-12T04:50:15;15.60;77.00
55785;DHT22;41709;52.536;5.688;2022-09-12T04:52:40;15.60;76.90
55785;DHT22;41709;52.536;5.688;2022-09-12T04:55:07;15.60;77.00
55785;DHT22;41709;52.536;5.688;2022-09-12T04:57:34;15.50;77.10
55785;DHT22;41709;52.536;5.688;2022-09-12T05:00:00;15.50;77.20
55785;DHT22;41709;52.536;5.688;2022-09-12T05:02:26;15.50;77.50
55785;DHT22;41709;52.536;5.688;2022-09-12T05:04:51;15.50;77.50
55785;DHT22;41709;52.536;5.688;2022-09-12T05:07:18;15.60;77.70
55785;DHT22;41709;52.536;5.688;2022-09-12T05:09:44;15.50;77.90
55785;DHT22;41709;52.536;5.688;2022-09-12T05:12:11;15.50;78.10
55785;DHT22;41709;52.536;5.688;2022-09-12T05:14:36;15.50;78.10
55785;DHT22;41709;52.536;5.688;2022-09-12T05:17:03;15.50;78.20
55785;DHT22;41709;52.536;5.688;2022-09-12T05:19:30;15.60;78.30
55785;DHT22;41709;52.536;5.688;2022-09-12T05:21:56;15.50;78.40
55785;DHT22;41709;52.536;5.688;2022-09-12T05:24:23;15.60;78.30
55785;DHT22;41709;52.536;5.688;2022-09-12T05:26:49;15.60;78.30
55785;DHT22;41709;52.536;5.688;2022-09-12T05:29:14;15.60;78.40
55785;DHT22;41709;52.536;5.688;2022-09-12T05:31:40;15.60;78.30
55785;DHT22;41709;52.536;5.688;2022-09-12T05:34:07;15.60;78.50
55785;DHT22;41709;52.536;5.688;2022-09-12T05:36:35;15.60;78.50
55785;DHT22;41709;52.536;5.688;2022-09-12T05:39:02;15.70;79.30
55785;DHT22;41709;52.536;5.688;2022-09-12T05:41:29;15.70;78.60
55785;DHT22;41709;52.536;5.688;2022-09-12T05:43:57;15.80;78.50
55785;DHT22;41709;52.536;5.688;2022-09-12T05:46:26;15.80;78.40
55785;DHT22;41709;52.536;5.688;2022-09-12T05:48:52;15.80;78.20
55785;DHT22;41709;52.536;5.688;2022-09-12T05:51:21;15.90;78.40
55785;DHT22;41709;52.536;5.688;2022-09-12T05:53:50;15.80;78.20
55785;DHT22;41709;52.536;5.688;2022-09-12T05:56:18;15.90;77.90
55785;DHT22;41709;52.536;5.688;2022-09-12T05:58:46;15.90;77.90
55785;DHT22;41709;52.536;5.688;2022-09-12T06:01:14;15.90;77.90
55785;DHT22;41709;52.536;5.688;2022-09-12T06:03:46;15.90;78.00
55785;DHT22;41709;52.536;5.688;2022-09-12T06:06:13;15.90;78.30
55785;DHT22;41709;52.536;5.688;2022-09-12T06:08:43;15.90;78.10
55785;DHT22;41709;52.536;5.688;2022-09-12T06:11:11;15.90;77.80
55785;DHT22;41709;52.536;5.688;2022-09-12T06:13:38;15.90;77.90
55785;DHT22;41709;52.536;5.688;2022-09-12T06:18:37;16.10;78.10
55785;DHT22;41709;52.536;5.688;2022-09-12T06:21:08;16.00;78.00
55785;DHT22;41709;52.536;5.688;2022-09-12T06:23:34;16.00;77.70
55785;DHT22;41709;52.536;5.688;2022-09-12T06:26:01;16.00;77.80
55785;DHT22;41709;52.536;5.688;2022-09-12T06:28:28;16.10;77.70
55785;DHT22;41709;52.536;5.688;2022-09-12T06:31:01;16.10;77.80
55785;DHT22;41709;52.536;5.688;2022-09-12T06:33:29;16.10;77.90
55785;DHT22;41709;52.536;5.688;2022-09-12T06:38:29;16.10;77.70
55785;DHT22;41709;52.536;5.688;2022-09-12T06:40:56;16.20;77.90
55785;DHT22;41709;52.536;5.688;2022-09-12T06:43:22;16.20;77.80
55785;DHT22;41709;52.536;5.688;2022-09-12T06:45:50;16.20;77.70
55785;DHT22;41709;52.536;5.688;2022-09-12T06:48:16;16.20;77.80
55785;DHT22;41709;52.536;5.688;2022-09-12T06:50:41;16.30;77.90
55785;DHT22;41709;52.536;5.688;2022-09-12T06:53:07;16.30;77.90
55785;DHT22;41709;52.536;5.688;2022-09-12T06:55:32;16.40;77.80
55785;DHT22;41709;52.536;5.688;2022-09-12T06:57:59;16.40;77.80
55785;DHT22;41709;52.536;5.688;2022-09-12T07:00:24;16.40;77.70
55785;DHT22;41709;52.536;5.688;2022-09-12T07:02:54;16.40;77.40
55785;DHT22;41709;52.536;5.688;2022-09-12T07:05:21;16.40;77.30
55785;DHT22;41709;52.536;5.688;2022-09-12T07:07:46;16.50;77.30
55785;DHT22;41709;52.536;5.688;2022-09-12T07:10:12;16.50;76.90
55785;DHT22;41709;52.536;5.688;2022-09-12T07:12:38;16.50;77.20
55785;DHT22;41709;52.536;5.688;2022-09-12T07:15:03;16.50;77.40
55785;DHT22;41709;52.536;5.688;2022-09-12T07:17:29;16.50;77.30
55785;DHT22;41709;52.536;5.688;2022-09-12T07:19:55;16.50;77.20
55785;DHT22;41709;52.536;5.688;2022-09-12T07:22:20;16.50;77.20
55785;DHT22;41709;52.536;5.688;2022-09-12T07:24:46;16.50;77.20
55785;DHT22;41709;52.536;5.688;2022-09-12T07:27:12;16.50;76.90
55785;DHT22;41709;52.536;5.688;2022-09-12T07:29:37;16.60;77.20
55785;DHT22;41709;52.536;5.688;2022-09-12T07:32:04;16.60;77.30
55785;DHT22;41709;52.536;5.688;2022-09-12T07:34:30;16.60;77.30
55785;DHT22;41709;52.536;5.688;2022-09-12T07:36:56;16.60;77.30
55785;DHT22;41709;52.536;5.688;2022-09-12T07:39:22;16.60;77.50
55785;DHT22;41709;52.536;5.688;2022-09-12T07:41:47;16.60;77.80
55785;DHT22;41709;52.536;5.688;2022-09-12T07:44:13;16.70;78.00
55785;DHT22;41709;52.536;5.688;2022-09-12T07:46:38;16.70;77.90
55785;DHT22;41709;52.536;5.688;2022-09-12T07:49:04;16.70;78.10
55785;DHT22;41709;52.536;5.688;2022-09-12T07:51:30;16.80;78.20
55785;DHT22;41709;52.536;5.688;2022-09-12T07:53:57;16.80;78.10
55785;DHT22;41709;52.536;5.688;2022-09-12T07:56:23;16.80;78.50
55785;DHT22;41709;52.536;5.688;2022-09-12T07:58:49;16.90;78.50
55785;DHT22;41709;52.536;5.688;2022-09-12T08:01:17;17.00;78.40
55785;DHT22;41709;52.536;5.688;2022-09-12T08:03:45;17.00;78.10
55785;DHT22;41709;52.536;5.688;2022-09-12T08:06:13;17.00;78.50
55785;DHT22;41709;52.536;5.688;2022-09-12T08:08:40;17.10;78.60
55785;DHT22;41709;52.536;5.688;2022-09-12T08:11:07;17.20;79.00
55785;DHT22;41709;52.536;5.688;2022-09-12T08:13:35;17.20;78.50
55785;DHT22;41709;52.536;5.688;2022-09-12T08:16:06;17.30;78.60
55785;DHT22;41709;52.536;5.688;2022-09-12T08:18:34;17.40;78.50
55785;DHT22;41709;52.536;5.688;2022-09-12T08:21:02;17.50;78.70
55785;DHT22;41709;52.536;5.688;2022-09-12T08:23:28;17.60;78.60
55785;DHT22;41709;52.536;5.688;2022-09-12T08:25:55;17.70;78.10
55785;DHT22;41709;52.536;5.688;2022-09-12T08:28:22;17.70;78.10
55785;DHT22;41709;52.536;5.688;2022-09-12T08:30:47;17.80;78.80
55785;DHT22;41709;52.536;5.688;2022-09-12T08:33:13;18.00;77.80
55785;DHT22;41709;52.536;5.688;2022-09-12T08:35:39;18.00;77.40
55785;DHT22;41709;52.536;5.688;2022-09-12T08:38:05;18.10;77.00
55785;DHT22;41709;52.536;5.688;2022-09-12T08:40:32;18.20;76.60
55785;DHT22;41709;52.536;5.688;2022-09-12T08:46:22;18.30;76.30
55785;DHT22;41709;52.536;5.688;2022-09-12T08:48:50;18.40;76.40
55785;DHT22;41709;52.536;5.688;2022-09-12T08:51:18;18.50;76.70
55785;DHT22;41709;52.536;5.688;2022-09-12T08:53:46;18.50;76.40
55785;DHT22;41709;52.536;5.688;2022-09-12T08:56:13;18.50;75.80
55785;DHT22;41709;52.536;5.688;2022-09-12T08:58:41;18.70;76.30
55785;DHT22;41709;52.536;5.688;2022-09-12T09:01:34;18.70;74.80
55785;DHT22;41709;52.536;5.688;2022-09-12T09:04:46;18.80;74.20
55785;DHT22;41709;52.536;5.688;2022-09-12T09:07:32;18.80;74.30
55785;DHT22;41709;52.536;5.688;2022-09-12T09:12:56;18.90;73.70
55785;DHT22;41709;52.536;5.688;2022-09-12T09:18:21;19.10;74.40
55785;DHT22;41709;52.536;5.688;2022-09-12T09:21:19;19.10;74.10
55785;DHT22;41709;52.536;5.688;2022-09-12T09:23:49;19.20;73.30
55785;DHT22;41709;52.536;5.688;2022-09-12T09:26:27;19.30;73.20
55785;DHT22;41709;52.536;5.688;2022-09-12T09:28:57;19.40;72.90
55785;DHT22;41709;52.536;5.688;2022-09-12T09:31:25;19.50;72.40
55785;DHT22;41709;52.536;5.688;2022-09-12T09:33:52;19.40;72.20
55785;DHT22;41709;52.536;5.688;2022-09-12T09:36:21;19.50;72.80
55785;DHT22;41709;52.536;5.688;2022-09-12T09:38:58;19.50;71.50
55785;DHT22;41709;52.536;5.688;2022-09-12T09:44:15;19.60;71.00
55785;DHT22;41709;52.536;5.688;2022-09-12T09:46:41;19.60;70.50
55785;DHT22;41709;52.536;5.688;2022-09-12T09:49:13;19.70;70.20
55785;DHT22;41709;52.536;5.688;2022-09-12T09:51:40;19.80;70.70
55785;DHT22;41709;52.536;5.688;2022-09-12T09:54:21;19.80;70.40
55785;DHT22;41709;52.536;5.688;2022-09-12T09:56:47;19.80;70.40
55785;DHT22;41709;52.536;5.688;2022-09-12T09:59:30;19.90;70.10
55785;DHT22;41709;52.536;5.688;2022-09-12T10:04:40;19.90;69.80
55785;DHT22;41709;52.536;5.688;2022-09-12T10:07:17;20.00;69.10
55785;DHT22;41709;52.536;5.688;2022-09-12T10:10:03;20.00;68.50
55785;DHT22;41709;52.536;5.688;2022-09-12T10:12:29;20.10;69.00
55785;DHT22;41709;52.536;5.688;2022-09-12T10:15:00;20.20;68.60
55785;DHT22;41709;52.536;5.688;2022-09-12T10:17:27;20.20;66.10
55785;DHT22;41709;52.536;5.688;2022-09-12T10:19:54;20.20;66.30
55785;DHT22;41709;52.536;5.688;2022-09-12T10:22:26;20.30;66.40
55785;DHT22;41709;52.536;5.688;2022-09-12T10:24:55;20.30;66.00
55785;DHT22;41709;52.536;5.688;2022-09-12T10:27:24;20.30;65.40
55785;DHT22;41709;52.536;5.688;2022-09-12T10:34:53;20.50;64.90
55785;DHT22;41709;52.536;5.688;2022-09-12T10:39:52;20.60;66.40
55785;DHT22;41709;52.536;5.688;2022-09-12T10:42:48;20.70;63.80
55785;DHT22;41709;52.536;5.688;2022-09-12T10:45:22;20.80;64.40
55785;DHT22;41709;52.536;5.688;2022-09-12T10:47:49;20.90;64.60
55785;DHT22;41709;52.536;5.688;2022-09-12T10:50:27;20.90;65.00
55785;DHT22;41709;52.536;5.688;2022-09-12T10:52:54;21.00;64.70
55785;DHT22;41709;52.536;5.688;2022-09-12T10:55:37;21.20;65.10
55785;DHT22;41709;52.536;5.688;2022-09-12T10:58:23;21.20;64.80
55785;DHT22;41709;52.536;5.688;2022-09-12T11:01:02;21.20;63.20
55785;DHT22;41709;52.536;5.688;2022-09-12T11:03:51;21.30;63.20
55785;DHT22;41709;52.536;5.688;2022-09-12T11:06:28;21.30;63.80
55785;DHT22;41709;52.536;5.688;2022-09-12T11:14:39;21.40;63.60
55785;DHT22;41709;52.536;5.688;2022-09-12T11:17:50;21.50;62.90
55785;DHT22;41709;52.536;5.688;2022-09-12T11:26:30;21.70;61.90
55785;DHT22;41709;52.536;5.688;2022-09-12T11:32:09;21.80;62.00
55785;DHT22;41709;52.536;5.688;2022-09-12T11:37:41;21.90;62.00
55785;DHT22;41709;52.536;5.688;2022-09-12T11:40:22;22.00;61.80
55785;DHT22;41709;52.536;5.688;2022-09-12T11:42:51;21.90;61.30
55785;DHT22;41709;52.536;5.688;2022-09-12T11:45:22;22.00;61.30
55785;DHT22;41709;52.536;5.688;2022-09-12T11:47:53;22.00;61.40
55785;DHT22;41709;52.536;5.688;2022-09-12T11:50:27;22.00;62.70
55785;DHT22;41709;52.536;5.688;2022-09-12T11:53:30;22.10;61.00
55785;DHT22;41709;52.536;5.688;2022-09-12T11:55:54;22.20;61.40
55785;DHT22;41709;52.536;5.688;2022-09-12T11:58:23;22.20;60.20
55785;DHT22;41709;52.536;5.688;2022-09-12T12:00:55;22.30;60.30
55785;DHT22;41709;52.536;5.688;2022-09-12T12:03:36;22.30;60.20
55785;DHT22;41709;52.536;5.688;2022-09-12T12:06:11;22.40;60.00
55785;DHT22;41709;52.536;5.688;2022-09-12T12:08:42;22.50;60.40
55785;DHT22;41709;52.536;5.688;2022-09-12T12:11:08;22.60;59.40
55785;DHT22;41709;52.536;5.688;2022-09-12T12:18:38;22.70;59.30
55785;DHT22;41709;52.536;5.688;2022-09-12T12:21:34;22.80;59.20
55785;DHT22;41709;52.536;5.688;2022-09-12T12:26:53;22.90;59.70
55785;DHT22;41709;52.536;5.688;2022-09-12T12:34:45;23.00;59.60
55785;DHT22;41709;52.536;5.688;2022-09-12T12:39:59;23.00;58.00
55785;DHT22;41709;52.536;5.688;2022-09-12T12:49:58;23.30;58.80
55785;DHT22;41709;52.536;5.688;2022-09-12T12:52:28;23.30;57.70
55785;DHT22;41709;52.536;5.688;2022-09-12T12:54:57;23.40;59.00
55785;DHT22;41709;52.536;5.688;2022-09-12T12:57:45;23.40;58.20
55785;DHT22;41709;52.536;5.688;2022-09-12T13:05:47;23.70;58.00
55785;DHT22;41709;52.536;5.688;2022-09-12T13:13:26;23.80;56.30
55785;DHT22;41709;52.536;5.688;2022-09-12T13:15:54;23.90;56.10
55785;DHT22;41709;52.536;5.688;2022-09-12T13:18:25;23.90;56.00
55785;DHT22;41709;52.536;5.688;2022-09-12T13:21:05;23.90;55.80
55785;DHT22;41709;52.536;5.688;2022-09-12T13:23:32;24.00;55.50
55785;DHT22;41709;52.536;5.688;2022-09-12T13:26:00;24.10;55.50
55785;DHT22;41709;52.536;5.688;2022-09-12T13:28:28;24.20;54.70
55785;DHT22;41709;52.536;5.688;2022-09-12T13:30:56;24.30;55.70
55785;DHT22;41709;52.536;5.688;2022-09-12T13:33:39;24.50;55.70
55785;DHT22;41709;52.536;5.688;2022-09-12T13:42:19;25.00;51.60
55785;DHT22;41709;52.536;5.688;2022-09-12T13:45:14;25.10;51.80
55785;DHT22;41709;52.536;5.688;2022-09-12T13:47:44;25.20;51.90
55785;DHT22;41709;52.536;5.688;2022-09-12T13:50:22;25.20;52.40
55785;DHT22;41709;52.536;5.688;2022-09-12T13:52:54;25.30;52.10
55785;DHT22;41709;52.536;5.688;2022-09-12T13:55:35;25.40;52.70
55785;DHT22;41709;52.536;5.688;2022-09-12T14:00:30;25.70;51.90
55785;DHT22;41709;52.536;5.688;2022-09-12T14:02:57;25.90;50.80
55785;DHT22;41709;52.536;5.688;2022-09-12T14:05:44;26.10;51.70
55785;DHT22;41709;52.536;5.688;2022-09-12T14:08:13;26.20;50.20
55785;DHT22;41709;52.536;5.688;2022-09-12T14:10:42;26.30;49.90
55785;DHT22;41709;52.536;5.688;2022-09-12T14:13:25;26.20;49.20
55785;DHT22;41709;52.536;5.688;2022-09-12T14:15:53;26.20;49.60
55785;DHT22;41709;52.536;5.688;2022-09-12T14:18:24;26.20;49.40
55785;DHT22;41709;52.536;5.688;2022-09-12T14:20:51;26.20;50.00
55785;DHT22;41709;52.536;5.688;2022-09-12T14:23:29;26.30;50.70
55785;DHT22;41709;52.536;5.688;2022-09-12T14:26:01;26.30;50.40
55785;DHT22;41709;52.536;5.688;2022-09-12T14:28:28;26.40;48.70
55785;DHT22;41709;52.536;5.688;2022-09-12T14:31:05;26.30;49.00
55785;DHT22;41709;52.536;5.688;2022-09-12T14:33:49;26.30;49.80
55785;DHT22;41709;52.536;5.688;2022-09-12T14:38:50;26.20;49.80
55785;DHT22;41709;52.536;5.688;2022-09-12T14:41:32;26.30;49.50
55785;DHT22;41709;52.536;5.688;2022-09-12T14:44:02;26.30;49.90
55785;DHT22;41709;52.536;5.688;2022-09-12T14:46:35;26.20;49.10
55785;DHT22;41709;52.536;5.688;2022-09-12T14:49:34;26.20;49.50
55785;DHT22;41709;52.536;5.688;2022-09-12T14:52:06;26.30;49.10
55785;DHT22;41709;52.536;5.688;2022-09-12T14:57:00;26.30;48.40
55785;DHT22;41709;52.536;5.688;2022-09-12T14:59:38;26.30;49.40
55785;DHT22;41709;52.536;5.688;2022-09-12T15:07:40;26.50;47.40
55785;DHT22;41709;52.536;5.688;2022-09-12T15:12:35;26.50;49.20
55785;DHT22;41709;52.536;5.688;2022-09-12T15:15:17;26.60;48.30
55785;DHT22;41709;52.536;5.688;2022-09-12T15:17:43;26.70;47.50
55785;DHT22;41709;52.536;5.688;2022-09-12T15:20:08;26.70;47.50
55785;DHT22;41709;52.536;5.688;2022-09-12T15:22:35;26.70;47.90
55785;DHT22;41709;52.536;5.688;2022-09-12T15:25:02;26.70;48.50
55785;DHT22;41709;52.536;5.688;2022-09-12T15:27:28;26.70;47.80
55785;DHT22;41709;52.536;5.688;2022-09-12T15:29:54;26.70;47.30
55785;DHT22;41709;52.536;5.688;2022-09-12T15:32:24;26.70;47.20
55785;DHT22;41709;52.536;5.688;2022-09-12T15:34:51;26.70;48.40
55785;DHT22;41709;52.536;5.688;2022-09-12T15:37:17;26.70;48.50
55785;DHT22;41709;52.536;5.688;2022-09-12T15:39:43;26.60;48.00
55785;DHT22;41709;52.536;5.688;2022-09-12T15:42:12;26.70;49.40
55785;DHT22;41709;52.536;5.688;2022-09-12T15:44:38;26.70;48.70
55785;DHT22;41709;52.536;5.688;2022-09-12T15:47:04;26.70;47.70
55785;DHT22;41709;52.536;5.688;2022-09-12T15:49:30;26.70;47.20
55785;DHT22;41709;52.536;5.688;2022-09-12T15:51:56;26.70;47.50
55785;DHT22;41709;52.536;5.688;2022-09-12T15:54:22;26.60;48.20
55785;DHT22;41709;52.536;5.688;2022-09-12T15:56:48;26.50;49.00
55785;DHT22;41709;52.536;5.688;2022-09-12T15:59:14;26.50;48.90
55785;DHT22;41709;52.536;5.688;2022-09-12T16:01:39;26.30;48.70
55785;DHT22;41709;52.536;5.688;2022-09-12T16:06:43;26.20;49.40
55785;DHT22;41709;52.536;5.688;2022-09-12T16:09:09;26.10;48.80
55785;DHT22;41709;52.536;5.688;2022-09-12T16:11:34;26.00;48.70
55785;DHT22;41709;52.536;5.688;2022-09-12T16:14:00;25.90;48.70
55785;DHT22;41709;52.536;5.688;2022-09-12T16:16:26;25.80;48.80
55785;DHT22;41709;52.536;5.688;2022-09-12T16:18:52;25.80;49.50
55785;DHT22;41709;52.536;5.688;2022-09-12T16:21:17;25.80;49.80
55785;DHT22;41709;52.536;5.688;2022-09-12T16:23:43;25.80;50.00
55785;DHT22;41709;52.536;5.688;2022-09-12T16:26:09;25.70;49.80
55785;DHT22;41709;52.536;5.688;2022-09-12T16:28:35;25.80;50.20
55785;DHT22;41709;52.536;5.688;2022-09-12T16:31:03;25.80;50.40
55785;DHT22;41709;52.536;5.688;2022-09-12T16:33:30;25.80;49.50
55785;DHT22;41709;52.536;5.688;2022-09-12T16:36:04;25.80;49.30
55785;DHT22;41709;52.536;5.688;2022-09-12T16:38:30;25.80;50.90
55785;DHT22;41709;52.536;5.688;2022-09-12T16:41:04;25.80;50.30
55785;DHT22;41709;52.536;5.688;2022-09-12T16:43:31;25.80;49.50
55785;DHT22;41709;52.536;5.688;2022-09-12T16:46:17;25.80;50.00
55785;DHT22;41709;52.536;5.688;2022-09-12T16:48:48;25.70;49.60
55785;DHT22;41709;52.536;5.688;2022-09-12T16:51:15;25.60;50.10
55785;DHT22;41709;52.536;5.688;2022-09-12T16:53:41;25.50;50.40
55785;DHT22;41709;52.536;5.688;2022-09-12T16:56:07;25.30;50.20
55785;DHT22;41709;52.536;5.688;2022-09-12T16:58:34;25.20;50.70
55785;DHT22;41709;52.536;5.688;2022-09-12T17:01:17;25.10;51.90
55785;DHT22;41709;52.536;5.688;2022-09-12T17:03:43;25.00;51.30
55785;DHT22;41709;52.536;5.688;2022-09-12T17:06:16;24.80;51.20
55785;DHT22;41709;52.536;5.688;2022-09-12T17:08:44;24.70;51.70
55785;DHT22;41709;52.536;5.688;2022-09-12T17:11:13;24.60;51.90
55785;DHT22;41709;52.536;5.688;2022-09-12T17:13:40;24.50;52.00
55785;DHT22;41709;52.536;5.688;2022-09-12T17:16:07;24.40;52.10
55785;DHT22;41709;52.536;5.688;2022-09-12T17:18:33;24.30;52.40
55785;DHT22;41709;52.536;5.688;2022-09-12T17:20:59;24.30;52.70
55785;DHT22;41709;52.536;5.688;2022-09-12T17:23:24;24.20;52.80
55785;DHT22;41709;52.536;5.688;2022-09-12T17:25:50;24.30;52.70
55785;DHT22;41709;52.536;5.688;2022-09-12T17:28:17;24.20;53.00
55785;DHT22;41709;52.536;5.688;2022-09-12T17:30:42;24.20;53.20
55785;DHT22;41709;52.536;5.688;2022-09-12T17:33:08;24.00;53.20
55785;DHT22;41709;52.536;5.688;2022-09-12T17:35:34;24.00;53.10
55785;DHT22;41709;52.536;5.688;2022-09-12T17:38:00;23.90;53.90
55785;DHT22;41709;52.536;5.688;2022-09-12T17:40:26;23.80;53.50
55785;DHT22;41709;52.536;5.688;2022-09-12T17:42:52;23.80;53.70
55785;DHT22;41709;52.536;5.688;2022-09-12T17:45:17;23.70;54.00
55785;DHT22;41709;52.536;5.688;2022-09-12T17:47:43;23.70;54.30
55785;DHT22;41709;52.536;5.688;2022-09-12T17:50:09;23.60;54.20
55785;DHT22;41709;52.536;5.688;2022-09-12T17:52:35;23.70;54.30
55785;DHT22;41709;52.536;5.688;2022-09-12T17:55:01;23.60;54.30
55785;DHT22;41709;52.536;5.688;2022-09-12T17:57:27;23.50;54.40
55785;DHT22;41709;52.536;5.688;2022-09-12T17:59:53;23.40;54.50
55785;DHT22;41709;52.536;5.688;2022-09-12T18:02:18;23.40;54.90
55785;DHT22;41709;52.536;5.688;2022-09-12T18:04:45;23.30;54.50
55785;DHT22;41709;52.536;5.688;2022-09-12T18:07:15;23.30;55.20
55785;DHT22;41709;52.536;5.688;2022-09-12T18:09:42;23.30;55.30
55785;DHT22;41709;52.536;5.688;2022-09-12T18:12:09;23.20;55.30
55785;DHT22;41709;52.536;5.688;2022-09-12T18:14:35;23.20;55.70
55785;DHT22;41709;52.536;5.688;2022-09-12T18:17:02;23.10;55.50